createdAt,value
2018-08-23T00:00:07.362Z,5.23
2018-08-23T00:02:37.156Z,5.20
2018-08-23T00:05:05.728Z,4.40
2018-08-23T00:07:34.983Z,4.90
2018-08-23T00:10:05.372Z,5.57
2018-08-23T00:12:45.175Z,4.63
2018-08-23T00:15:18.311Z,4.77
2018-08-23T00:17:48.861Z,5.10
2018-08-23T00:20:22.255Z,5.37
2018-08-23T00:22:51.707Z,6.00
2018-08-23T00:25:28.900Z,4.70
2018-08-23T00:27:58.923Z,4.40
2018-08-23T00:30:32.633Z,5.10
2018-08-23T00:33:06.499Z,4.73
2018-08-23T00:35:38.980Z,5.13
2018-08-23T00:38:08.618Z,5.63
2018-08-23T00:40:41.177Z,4.97
2018-08-23T00:43:11.861Z,5.17
2018-08-23T00:45:49.288Z,5.00
2018-08-23T00:48:19.611Z,4.90
2018-08-23T00:50:49.417Z,5.23
2018-08-23T00:53:18.602Z,5.60
2018-08-23T00:55:47.491Z,5.63
2018-08-23T00:58:17.567Z,5.00
2018-08-23T01:00:54.074Z,5.17
2018-08-23T01:03:23.532Z,6.17
2018-08-23T01:05:57.986Z,5.10
2018-08-23T01:08:32.578Z,4.97
2018-08-23T01:11:03.397Z,5.73
2018-08-23T01:13:33.706Z,6.60
2018-08-23T01:16:06.481Z,5.07
2018-08-23T01:18:36.023Z,5.03
2018-08-23T01:21:09.628Z,4.70
2018-08-23T01:23:38.766Z,5.13
2018-08-23T01:26:14.056Z,6.40
2018-08-23T01:28:43.173Z,4.73
2018-08-23T01:31:25.846Z,5.83
2018-08-23T01:34:00.003Z,7.30
2018-08-23T01:36:33.203Z,5.13
2018-08-23T01:39:12.477Z,6.37
2018-08-23T01:41:40.991Z,5.03
2018-08-23T01:44:09.536Z,5.50
2018-08-23T01:46:48.526Z,5.40
2018-08-23T01:49:18.761Z,4.67
2018-08-23T01:51:47.274Z,4.83
2018-08-23T01:54:15.830Z,7.27
2018-08-23T01:56:44.618Z,5.00
2018-08-23T01:59:13.829Z,5.00
2018-08-23T02:01:42.745Z,5.03
2018-08-23T02:04:12.370Z,4.90
2018-08-23T02:06:59.503Z,5.40
2018-08-23T02:09:29.667Z,6.63
2018-08-23T02:11:59.603Z,5.13
2018-08-23T02:14:31.769Z,5.50
2018-08-23T02:17:16.138Z,5.20
2018-08-23T02:19:47.871Z,4.77
2018-08-23T02:22:17.005Z,5.43
2018-08-23T02:24:49.506Z,5.20
2018-08-23T02:27:20.353Z,5.07
2018-08-23T02:29:49.800Z,5.50
2018-08-23T02:32:18.700Z,5.23
2018-08-23T02:34:48.486Z,4.77
2018-08-23T02:37:19.115Z,5.20
2018-08-23T02:39:48.324Z,5.00
2018-08-23T02:42:19.629Z,5.23
2018-08-23T02:44:52.463Z,5.97
2018-08-23T02:47:23.014Z,5.47
2018-08-23T02:49:52.248Z,5.37
2018-08-23T02:52:20.832Z,5.50
2018-08-23T02:54:49.781Z,5.53
2018-08-23T02:57:18.866Z,6.27
2018-08-23T02:59:48.666Z,5.03
2018-08-23T03:02:17.645Z,5.37
2018-08-23T03:04:46.185Z,5.33
2018-08-23T03:07:14.737Z,5.40
2018-08-23T03:09:46.187Z,5.10
2018-08-23T03:12:17.363Z,4.97
2018-08-23T03:14:45.966Z,5.27
2018-08-23T03:17:22.487Z,5.17
2018-08-23T03:20:17.663Z,5.53
2018-08-23T03:22:47.961Z,5.27
2018-08-23T03:25:18.534Z,6.10
2018-08-23T03:28:00.002Z,5.53
2018-08-23T03:30:28.523Z,5.30
2018-08-23T03:32:58.665Z,5.20
2018-08-23T03:35:28.362Z,5.80
2018-08-23T03:38:01.598Z,5.10
2018-08-23T03:40:31.827Z,5.60
2018-08-23T03:43:00.762Z,5.37
2018-08-23T03:45:29.297Z,5.33
2018-08-23T03:48:18.240Z,5.60
2018-08-23T03:50:53.182Z,5.73
2018-08-23T03:53:23.466Z,4.90
2018-08-23T03:56:07.245Z,5.80
2018-08-23T03:58:36.139Z,5.40
2018-08-23T04:01:08.263Z,5.40
2018-08-23T04:03:43.087Z,6.07
2018-08-23T04:06:26.063Z,5.83
2018-08-23T04:09:02.402Z,5.63
2018-08-23T04:11:32.396Z,5.20
2018-08-23T04:14:01.696Z,5.63
2018-08-23T04:16:31.901Z,8.17
2018-08-23T04:20:47.941Z,5.87
2018-08-23T04:23:16.968Z,6.90
2018-08-23T04:25:46.916Z,16.90
2018-08-23T04:28:16.414Z,5.30
2018-08-23T04:30:47.496Z,6.97
2018-08-23T04:33:16.345Z,5.47
2018-08-23T04:35:45.856Z,5.70
2018-08-23T04:43:14.739Z,6.07
2018-08-23T04:45:43.262Z,6.67
2018-08-23T04:48:12.774Z,5.80
2018-08-23T04:50:41.319Z,6.83
2018-08-23T04:53:11.130Z,5.83
2018-08-23T04:55:39.903Z,6.00
2018-08-23T04:58:08.435Z,8.40
2018-08-23T05:00:37.639Z,7.03
2018-08-23T05:03:06.428Z,6.00
2018-08-23T05:05:37.109Z,5.47
2018-08-23T05:08:05.727Z,5.60
2018-08-23T05:10:37.319Z,5.43
2018-08-23T05:13:08.548Z,6.40
2018-08-23T05:15:50.431Z,6.03
2018-08-23T05:18:23.280Z,5.63
2018-08-23T05:20:52.173Z,7.37
2018-08-23T05:23:26.265Z,5.47
2018-08-23T05:25:57.046Z,6.00
2018-08-23T05:28:26.170Z,6.00
2018-08-23T05:30:56.031Z,5.50
2018-08-23T05:33:25.331Z,5.80
2018-08-23T05:36:00.591Z,6.10
2018-08-23T05:38:30.046Z,5.83
2018-08-23T05:41:04.518Z,5.87
2018-08-23T05:43:33.757Z,6.13
2018-08-23T05:46:23.089Z,5.90
2018-08-23T05:48:53.902Z,6.53
2018-08-23T05:51:22.783Z,5.63
2018-08-23T05:53:56.551Z,6.00
2018-08-23T05:56:26.883Z,5.33
2018-08-23T05:59:00.644Z,5.97
2018-08-23T06:01:30.871Z,5.50
2018-08-23T06:03:59.958Z,5.87
2018-08-23T06:06:38.744Z,5.43
2018-08-23T06:09:15.894Z,5.73
2018-08-23T06:11:44.679Z,6.37
2018-08-23T06:14:14.097Z,5.30
2018-08-23T06:16:58.942Z,5.83
2018-08-23T06:19:29.429Z,7.17
2018-08-23T06:21:58.204Z,5.60
2018-08-23T06:24:28.968Z,5.97
2018-08-23T06:27:03.154Z,5.77
2018-08-23T06:29:34.520Z,5.73
2018-08-23T06:32:06.744Z,6.67
2018-08-23T06:34:37.550Z,5.97
2018-08-23T06:37:22.940Z,6.10
2018-08-23T06:39:52.523Z,7.13
2018-08-23T06:42:26.812Z,5.07
2018-08-23T06:44:56.048Z,5.63
2018-08-23T06:50:19.671Z,5.67
2018-08-23T06:52:50.129Z,6.07
2018-08-23T06:55:26.030Z,5.70
2018-08-23T06:58:00.186Z,5.73
2018-08-23T07:00:36.385Z,5.70
2018-08-23T07:03:05.186Z,7.50
2018-08-23T07:05:33.801Z,6.63
2018-08-23T07:08:12.529Z,5.77
2018-08-23T07:10:41.885Z,5.47
2018-08-23T07:13:10.531Z,5.87
2018-08-23T07:15:43.627Z,5.53
2018-08-23T07:18:18.813Z,5.70
2018-08-23T07:20:48.339Z,5.93
2018-08-23T07:23:40.722Z,8.00
2018-08-23T07:26:09.465Z,5.23
2018-08-23T07:28:44.919Z,6.73
2018-08-23T07:31:14.216Z,5.67
2018-08-23T07:33:44.996Z,5.53
2018-08-23T07:36:24.227Z,4.93
2018-08-23T07:38:55.476Z,6.20
2018-08-23T07:41:24.455Z,6.00
2018-08-23T07:43:54.279Z,4.90
2018-08-23T07:46:23.663Z,6.30
2018-08-23T07:48:54.675Z,5.00
2018-08-23T07:51:25.475Z,6.13
2018-08-23T07:53:57.410Z,4.83
2018-08-23T07:56:28.392Z,5.70
2018-08-23T07:59:02.160Z,5.50
2018-08-23T08:01:35.028Z,5.17
2018-08-23T08:04:11.096Z,5.00
2018-08-23T08:09:24.017Z,4.53
2018-08-23T08:12:00.321Z,4.50
2018-08-23T08:14:37.717Z,4.97
2018-08-23T08:17:15.919Z,4.50
2018-08-23T08:20:06.658Z,4.67
2018-08-23T08:22:36.671Z,4.93
2018-08-23T08:25:10.717Z,6.37
2018-08-23T08:27:47.141Z,4.63
2018-08-23T08:30:30.989Z,7.03
2018-08-23T08:33:02.798Z,4.87
2018-08-23T08:35:37.786Z,5.23
2018-08-23T08:38:11.645Z,5.30
2018-08-23T08:41:05.146Z,4.50
2018-08-23T08:43:37.466Z,4.80
2018-08-23T08:46:06.987Z,5.17
2018-08-23T08:48:37.064Z,5.00
2018-08-23T08:51:27.048Z,6.90
2018-08-23T08:53:56.314Z,5.33
2018-08-23T08:56:29.333Z,5.30
2018-08-23T08:59:03.268Z,5.43
2018-08-23T09:01:39.879Z,4.87
2018-08-23T09:04:18.303Z,6.13
2018-08-23T09:06:48.713Z,4.80
2018-08-23T09:09:36.746Z,6.73
2018-08-23T09:12:23.036Z,4.20
2018-08-23T09:14:54.564Z,6.17
2018-08-23T09:17:38.698Z,6.63
2018-08-23T09:20:14.879Z,5.70
2018-08-23T09:22:57.657Z,12.57
2018-08-23T09:25:48.290Z,7.50
2018-08-23T09:28:18.702Z,4.53
2018-08-23T09:30:49.083Z,4.50
2018-08-23T09:33:28.718Z,4.80
2018-08-23T09:36:04.447Z,4.97
2018-08-23T09:38:36.303Z,4.63
2018-08-23T09:41:08.017Z,9.47
2018-08-23T10:45:55.951Z,4.87
2018-08-23T10:48:26.244Z,5.40
2018-08-23T10:50:57.817Z,4.93
2018-08-23T10:53:27.557Z,4.17
2018-08-23T10:56:03.702Z,5.47
2018-08-23T12:36:53.583Z,4.30
2018-08-23T12:39:30.942Z,4.77
2018-08-23T12:42:05.773Z,4.13
2018-08-23T12:44:47.114Z,4.43
2018-08-23T12:47:18.119Z,3.73
2018-08-23T13:09:11.436Z,4.73
2018-08-23T13:36:43.673Z,4.80
2018-08-23T13:39:14.444Z,5.93
2018-08-23T13:41:44.326Z,5.70
2018-08-23T13:46:56.472Z,6.67
2018-08-23T13:49:31.749Z,4.50
2018-08-23T13:52:12.743Z,6.93
2018-08-23T13:54:55.125Z,4.63
2018-08-23T14:16:01.065Z,5.33
2018-08-23T14:21:45.408Z,4.30
2018-08-23T14:24:31.300Z,7.30
2018-08-23T14:27:18.448Z,4.67
2018-08-23T14:29:47.100Z,5.70
2018-08-23T14:32:16.778Z,6.30
2018-08-23T14:34:45.438Z,4.50
2018-08-23T14:37:16.891Z,6.37
2018-08-23T14:40:08.462Z,6.80
2018-08-23T14:42:53.576Z,3.93
2018-08-23T14:45:31.871Z,4.87
2018-08-23T14:48:06.759Z,5.03
2018-08-23T14:50:42.787Z,5.37
2018-08-23T14:53:12.296Z,6.30
2018-08-23T14:55:48.250Z,4.47
2018-08-23T14:58:19.413Z,5.03
2018-08-23T15:00:50.618Z,4.60
2018-08-23T15:03:20.674Z,5.37
2018-08-23T15:05:50.694Z,4.60
2018-08-23T15:08:21.234Z,4.80
2018-08-23T15:10:52.887Z,5.10
2018-08-23T15:13:21.513Z,3.93
2018-08-23T15:15:51.847Z,3.40
2018-08-23T15:18:24.219Z,4.00
2018-08-23T15:20:54.199Z,5.90
2018-08-23T15:23:23.345Z,9.83
2018-08-23T15:25:52.118Z,4.33
2018-08-23T15:28:28.907Z,4.40
2018-08-23T15:31:11.070Z,7.37
2018-08-23T15:33:42.111Z,5.00
2018-08-23T15:36:13.483Z,4.07
2018-08-23T15:38:43.749Z,7.87
2018-08-23T15:41:22.971Z,4.90
2018-08-23T15:43:52.519Z,3.80
2018-08-23T15:46:26.422Z,4.67
2018-08-23T15:48:56.133Z,7.93
2018-08-23T15:51:26.382Z,4.20
2018-08-23T15:53:54.950Z,5.00
2018-08-23T15:56:24.671Z,8.17
2018-08-23T15:58:54.912Z,9.47
2018-08-23T16:01:31.395Z,13.83
2018-08-23T16:04:04.984Z,20.37
2018-08-23T16:06:35.721Z,17.13
2018-08-23T16:09:08.003Z,12.63
2018-08-23T16:14:42.106Z,12.70
2018-08-23T16:17:16.137Z,16.83
2018-08-23T16:19:51.074Z,15.80
2018-08-23T16:22:23.537Z,12.70
2018-08-23T16:24:53.664Z,12.83
2018-08-23T16:27:23.791Z,12.00
2018-08-23T16:29:53.839Z,11.83
2018-08-23T16:32:28.210Z,6.67
2018-08-23T16:35:09.256Z,9.90
2018-08-23T16:37:38.564Z,8.17
2018-08-23T16:40:30.411Z,4.80
2018-08-23T16:43:01.028Z,9.10
2018-08-23T16:45:31.520Z,7.47
2018-08-23T16:48:00.942Z,9.03
2018-08-23T16:50:32.771Z,7.83
2018-08-23T16:53:02.146Z,5.77
2018-08-23T16:55:35.031Z,7.20
2018-08-23T16:58:04.197Z,7.60
2018-08-23T17:00:34.055Z,7.97
2018-08-23T17:03:03.533Z,7.53
2018-08-23T17:05:32.954Z,4.33
2018-08-23T17:08:02.306Z,5.97
2018-08-23T17:10:36.237Z,6.53
2018-08-23T17:13:07.424Z,6.27
2018-08-23T17:15:54.420Z,4.20
2018-08-23T17:18:23.986Z,4.87
2018-08-23T17:20:52.618Z,5.93
2018-08-23T17:23:22.627Z,4.57
2018-08-23T17:25:53.405Z,4.77
2018-08-23T17:28:22.763Z,4.73
2018-08-23T17:30:52.384Z,4.80
2018-08-23T17:33:21.623Z,4.20
2018-08-23T17:35:52.431Z,4.90
2018-08-23T17:38:21.646Z,6.13
2018-08-23T17:40:52.334Z,3.47
2018-08-23T17:43:21.842Z,5.77
2018-08-23T17:45:52.337Z,3.60
2018-08-23T17:48:24.175Z,4.23
2018-08-23T17:50:53.284Z,4.17
2018-08-23T17:53:23.625Z,4.47
2018-08-23T17:55:56.135Z,4.23
2018-08-23T17:58:25.565Z,5.23
2018-08-23T18:00:54.901Z,4.90
2018-08-23T18:03:25.187Z,6.03
2018-08-23T18:05:56.994Z,5.17
2018-08-23T18:08:27.141Z,5.13
2018-08-23T18:10:56.721Z,5.27
2018-08-23T18:13:25.859Z,5.67
2018-08-23T18:16:08.957Z,4.57
2018-08-23T18:18:39.459Z,4.93
2018-08-23T18:21:09.955Z,5.70
2018-08-23T18:23:44.983Z,6.90
2018-08-23T18:26:15.022Z,5.07
2018-08-23T18:28:44.603Z,5.33
2018-08-23T18:31:17.544Z,5.57
2018-08-23T18:33:47.506Z,4.80
2018-08-23T18:36:18.479Z,5.87
2018-08-23T18:38:51.561Z,5.73
2018-08-23T18:41:21.814Z,5.50
2018-08-23T18:43:51.218Z,6.07
2018-08-23T18:46:24.016Z,6.63
2018-08-23T18:48:59.515Z,4.97
2018-08-23T18:51:40.992Z,5.07
2018-08-23T18:54:12.445Z,4.83
2018-08-23T18:56:44.335Z,4.33
2018-08-23T18:59:14.957Z,6.87
2018-08-23T19:01:45.067Z,5.70
2018-08-23T19:04:15.777Z,5.57
2018-08-23T19:06:46.456Z,4.40
2018-08-23T19:09:17.075Z,4.47
2018-08-23T19:11:49.517Z,4.53
2018-08-23T19:14:21.710Z,7.00
2018-08-23T19:17:05.041Z,5.90
2018-08-23T19:19:35.211Z,4.57
2018-08-23T19:22:10.778Z,4.53
2018-08-23T19:24:46.767Z,4.30
2018-08-23T19:30:07.239Z,4.33
2018-08-23T19:32:37.661Z,3.60
2018-08-23T19:35:06.854Z,5.73
2018-08-23T19:37:40.052Z,6.87
2018-08-23T19:40:12.247Z,4.30
2018-08-23T19:42:43.279Z,5.40
2018-08-23T19:45:24.350Z,6.17
2018-08-23T19:48:00.047Z,4.57
2018-08-23T19:50:45.474Z,4.57
2018-08-23T19:57:09.117Z,5.03
2018-08-23T20:02:58.920Z,7.47
2018-08-23T21:23:08.423Z,5.53
2018-08-23T21:25:42.642Z,6.17
2018-08-23T21:28:16.626Z,4.93
2018-08-23T21:31:02.085Z,3.50
2018-08-23T21:33:32.583Z,4.40
2018-08-23T21:36:07.274Z,4.77
2018-08-23T21:38:49.602Z,4.00
2018-08-23T21:41:19.783Z,3.47
2018-08-23T21:43:50.092Z,4.27
2018-08-23T21:46:19.353Z,6.10
2018-08-23T21:48:49.949Z,5.27
2018-08-23T21:51:30.016Z,3.83
2018-08-23T21:53:59.861Z,3.93
2018-08-23T21:56:35.730Z,3.60
2018-08-23T21:59:08.611Z,3.83
2018-08-23T22:01:59.090Z,5.10
2018-08-23T22:04:30.243Z,4.93
2018-08-23T22:06:58.823Z,5.03
2018-08-23T22:09:28.449Z,4.30
2018-08-23T22:12:01.177Z,3.73
2018-08-23T22:14:29.765Z,3.30
2018-08-23T22:17:00.789Z,4.30
2018-08-23T22:19:29.558Z,3.10
2018-08-23T22:22:04.696Z,4.40
2018-08-23T22:24:34.469Z,3.27
2018-08-23T22:27:08.269Z,5.70
2018-08-23T22:29:38.242Z,3.43
2018-08-23T22:32:09.797Z,3.03
2018-08-23T22:34:43.819Z,3.37
2018-08-23T22:37:16.641Z,3.63
2018-08-23T22:39:51.144Z,3.00
2018-08-23T22:42:40.647Z,3.00
2018-08-23T22:45:22.163Z,3.87
2018-08-23T22:47:52.842Z,3.87
2018-08-23T22:50:23.398Z,3.00
2018-08-23T22:52:54.949Z,4.17
2018-08-23T22:55:25.388Z,3.27
2018-08-23T22:57:55.428Z,3.13
2018-08-23T23:00:32.364Z,4.27
2018-08-23T23:03:03.531Z,3.33
2018-08-23T23:05:34.290Z,2.77
2018-08-23T23:08:09.387Z,3.27
2018-08-23T23:10:50.779Z,4.10
2018-08-23T23:13:34.266Z,3.00
2018-08-23T23:16:03.687Z,3.03
2018-08-23T23:18:32.491Z,3.40
2018-08-23T23:21:02.477Z,3.67
2018-08-23T23:23:38.618Z,4.13
2018-08-23T23:26:07.994Z,3.37
2018-08-23T23:28:36.827Z,5.33
2018-08-23T23:31:07.589Z,4.07
2018-08-23T23:33:59.928Z,3.00
2018-08-23T23:36:30.116Z,3.53
2018-08-23T23:39:00.247Z,2.90
2018-08-23T23:41:37.893Z,4.20
2018-08-23T23:44:11.387Z,2.80
2018-08-23T23:46:41.338Z,2.73
2018-08-23T23:49:11.491Z,2.80
2018-08-23T23:51:40.736Z,2.70
2018-08-23T23:54:12.913Z,3.17
2018-08-23T23:56:45.990Z,3.20
2018-08-23T23:59:15.589Z,4.83
